Klar, wolkenlos
Klar, wolkenlos
Klar, wolkenlos
Klar, wolkenlos
Klar, wolkenlos
Klar, wolkenlos
Klar, wolkenlos
(°C)
12°
10°
(°C)
W
W
W
W
WNW
NW
NW
(km/h)
8-13
8-12
7-13
7-11
7-10
6-12
6-11
(mm)
0
0
0
0
0
0
0
(%)
0
0
0
0
0
0
0

Sonnenhöhe

/ -25.9°
sun-icon
UV 3
08:05
18:32
Zunehmender Mond (165°)
17:13
07:42

METAR für Alcantarilla (LERI)

Zeit Bedingungen Temperatur/
Taupunkt
Wind Sichtweite Wetter Wolken Druck Änderung Roh
VFR 14°C / 2°C 240º 9kt >10km - Clouds and Visibility OK 1027 No Significant change LERI 041800Z 24009KT CAVOK 14/02 Q1027 NOSIG
VFR 16°C / 1°C 240º 8kt >10km - Clouds and Visibility OK 1027 No Significant change LERI 041730Z 24008KT CAVOK 16/01 Q1027 NOSIG
VFR 18°C / -2°C 230º variable 170º to 250º 6kt >10km - Clouds and Visibility OK 1027 No Significant change LERI 041700Z 23006KT 170V250 CAVOK 18/M02 Q1027 NOSIG
VFR 20°C / -6°C 230º 7kt >10km - Clouds and Visibility OK 1026 No Significant change LERI 041630Z 23007KT CAVOK 20/M06 Q1026 NOSIG
VFR 23°C / °C variable 1kt >10km - Clouds and Visibility OK 1026 No Significant change LERI 041530Z VRB01KT CAVOK 23/M10 Q1026 NOSIG
VFR 22°C / °C 200º variable 120º to 240º 3kt >10km - Clouds and Visibility OK 1026 No Significant change LERI 041500Z 20003KT 120V240 CAVOK 22/M10 Q1026 NOSIG
VFR 22°C / °C variable 1kt >10km - Clouds and Visibility OK 1027 No Significant change LERI 041430Z VRB01KT CAVOK 22/M11 Q1027 NOSIG
VFR 21°C / °C 110º variable 350º to 160º 3kt >10km - Clouds and Visibility OK 1027 No Significant change LERI 041400Z 11003KT 350V160 CAVOK 21/M11 Q1027 NOSIG
VFR 20°C / -8°C 90º variable 050º to 140º 3kt >10km - Clouds and Visibility OK 1028 No Significant change LERI 041330Z 09003KT 050V140 CAVOK 20/M08 Q1028 NOSIG
VFR 19°C / -8°C variable 2kt >10km - Clouds and Visibility OK 1028 No Significant change LERI 041300Z VRB02KT CAVOK 19/M08 Q1028 NOSIG
VFR 18°C / -5°C variable 2kt >10km - Clouds and Visibility OK 1029 No Significant change LERI 041230Z VRB02KT CAVOK 18/M05 Q1029 NOSIG
VFR 17°C / -5°C variable 1kt >10km - Clouds and Visibility OK 1030 No Significant change LERI 041200Z VRB01KT CAVOK 17/M05 Q1030 NOSIG
VFR 16°C / -6°C 90º 1kt >10km - Clouds and Visibility OK 1030 No Significant change LERI 041130Z 09001KT CAVOK 16/M06 Q1030 NOSIG
VFR 14°C / -3°C variable 1kt >10km - Clouds and Visibility OK 1030 No Significant change LERI 041100Z VRB01KT CAVOK 14/M03 Q1030 NOSIG
VFR 9°C / -1°C variable 1kt >10km - Clouds and Visibility OK 1031 No Significant change LERI 041000Z VRB01KT CAVOK 09/M01 Q1031 NOSIG
VFR 7°C / -1°C variable 0kt >10km - Clouds and Visibility OK 1031 No Significant change LERI 040930Z 00000KT CAVOK 07/M01 Q1031 NOSIG
VFR 4°C / 0°C variable 1kt >10km - Clouds and Visibility OK 1031 No Significant change LERI 040900Z VRB01KT CAVOK 04/M00 Q1031 NOSIG
VFR 2°C / -1°C variable 0kt >10km - Clouds and Visibility OK 1031 No Significant change LERI 040830Z 00000KT CAVOK 02/M01 Q1031 NOSIG
VFR 0°C / -2°C 230º 3kt >10km - Clouds and Visibility OK 1031 No Significant change LERI 040800Z 23003KT CAVOK M00/M02 Q1031 NOSIG
VFR -2°C / -3°C 220º 3kt >10km - Clouds and Visibility OK 1031 No Significant change LERI 040730Z 22003KT CAVOK M02/M03 Q1031 NOSIG
VFR -2°C / -3°C 230º 3kt >10km - Clouds and Visibility OK 1031 No Significant change LERI 040700Z 23003KT CAVOK M02/M03 Q1031 NOSIG
VFR -1°C / -2°C 250º 3kt >10km - Clouds and Visibility OK 1031 No Significant change LERI 040630Z 25003KT CAVOK M01/M02 Q1031 NOSIG
VFR -1°C / -3°C 230º 3kt >10km - Clouds and Visibility OK 1031 No Significant change LERI 040600Z 23003KT CAVOK M01/M03 Q1031 NOSIG
VFR 11°C / 1°C 110º 4kt >10km - Clouds and Visibility OK 1031 No Significant change LERI 031800Z 11004KT CAVOK 11/01 Q1031 NOSIG

VFR

14°C / 2°C

[Mehr]
Wind 240º 9kt
Sichtweite >10km
Wetter -
Wolken Clouds and Visibility OK
Druck 1027
Änderung No Significant change
Roh LERI 041800Z 24009KT CAVOK 14/02 Q1027 NOSIG

VFR

16°C / 1°C

[Mehr]
Wind 240º 8kt
Sichtweite >10km
Wetter -
Wolken Clouds and Visibility OK
Druck 1027
Änderung No Significant change
Roh LERI 041730Z 24008KT CAVOK 16/01 Q1027 NOSIG

VFR

18°C / -2°C

[Mehr]
Wind 230º variable 170º to 250º 6kt
Sichtweite >10km
Wetter -
Wolken Clouds and Visibility OK
Druck 1027
Änderung No Significant change
Roh LERI 041700Z 23006KT 170V250 CAVOK 18/M02 Q1027 NOSIG

VFR

20°C / -6°C

[Mehr]
Wind 230º 7kt
Sichtweite >10km
Wetter -
Wolken Clouds and Visibility OK
Druck 1026
Änderung No Significant change
Roh LERI 041630Z 23007KT CAVOK 20/M06 Q1026 NOSIG

VFR

23°C / °C

[Mehr]
Wind variable 1kt
Sichtweite >10km
Wetter -
Wolken Clouds and Visibility OK
Druck 1026
Änderung No Significant change
Roh LERI 041530Z VRB01KT CAVOK 23/M10 Q1026 NOSIG

VFR

22°C / °C

[Mehr]
Wind 200º variable 120º to 240º 3kt
Sichtweite >10km
Wetter -
Wolken Clouds and Visibility OK
Druck 1026
Änderung No Significant change
Roh LERI 041500Z 20003KT 120V240 CAVOK 22/M10 Q1026 NOSIG

VFR

22°C / °C

[Mehr]
Wind variable 1kt
Sichtweite >10km
Wetter -
Wolken Clouds and Visibility OK
Druck 1027
Änderung No Significant change
Roh LERI 041430Z VRB01KT CAVOK 22/M11 Q1027 NOSIG

VFR

21°C / °C

[Mehr]
Wind 110º variable 350º to 160º 3kt
Sichtweite >10km
Wetter -
Wolken Clouds and Visibility OK
Druck 1027
Änderung No Significant change
Roh LERI 041400Z 11003KT 350V160 CAVOK 21/M11 Q1027 NOSIG

VFR

20°C / -8°C

[Mehr]
Wind 90º variable 050º to 140º 3kt
Sichtweite >10km
Wetter -
Wolken Clouds and Visibility OK
Druck 1028
Änderung No Significant change
Roh LERI 041330Z 09003KT 050V140 CAVOK 20/M08 Q1028 NOSIG

VFR

19°C / -8°C

[Mehr]
Wind variable 2kt
Sichtweite >10km
Wetter -
Wolken Clouds and Visibility OK
Druck 1028
Änderung No Significant change
Roh LERI 041300Z VRB02KT CAVOK 19/M08 Q1028 NOSIG

VFR

18°C / -5°C

[Mehr]
Wind variable 2kt
Sichtweite >10km
Wetter -
Wolken Clouds and Visibility OK
Druck 1029
Änderung No Significant change
Roh LERI 041230Z VRB02KT CAVOK 18/M05 Q1029 NOSIG

VFR

17°C / -5°C

[Mehr]
Wind variable 1kt
Sichtweite >10km
Wetter -
Wolken Clouds and Visibility OK
Druck 1030
Änderung No Significant change
Roh LERI 041200Z VRB01KT CAVOK 17/M05 Q1030 NOSIG

VFR

16°C / -6°C

[Mehr]
Wind 90º 1kt
Sichtweite >10km
Wetter -
Wolken Clouds and Visibility OK
Druck 1030
Änderung No Significant change
Roh LERI 041130Z 09001KT CAVOK 16/M06 Q1030 NOSIG

VFR

14°C / -3°C

[Mehr]
Wind variable 1kt
Sichtweite >10km
Wetter -
Wolken Clouds and Visibility OK
Druck 1030
Änderung No Significant change
Roh LERI 041100Z VRB01KT CAVOK 14/M03 Q1030 NOSIG

VFR

9°C / -1°C

[Mehr]
Wind variable 1kt
Sichtweite >10km
Wetter -
Wolken Clouds and Visibility OK
Druck 1031
Änderung No Significant change
Roh LERI 041000Z VRB01KT CAVOK 09/M01 Q1031 NOSIG

VFR

7°C / -1°C

[Mehr]
Wind variable 0kt
Sichtweite >10km
Wetter -
Wolken Clouds and Visibility OK
Druck 1031
Änderung No Significant change
Roh LERI 040930Z 00000KT CAVOK 07/M01 Q1031 NOSIG

VFR

4°C / 0°C

[Mehr]
Wind variable 1kt
Sichtweite >10km
Wetter -
Wolken Clouds and Visibility OK
Druck 1031
Änderung No Significant change
Roh LERI 040900Z VRB01KT CAVOK 04/M00 Q1031 NOSIG

VFR

2°C / -1°C

[Mehr]
Wind variable 0kt
Sichtweite >10km
Wetter -
Wolken Clouds and Visibility OK
Druck 1031
Änderung No Significant change
Roh LERI 040830Z 00000KT CAVOK 02/M01 Q1031 NOSIG

VFR

0°C / -2°C

[Mehr]
Wind 230º 3kt
Sichtweite >10km
Wetter -
Wolken Clouds and Visibility OK
Druck 1031
Änderung No Significant change
Roh LERI 040800Z 23003KT CAVOK M00/M02 Q1031 NOSIG

VFR

-2°C / -3°C

[Mehr]
Wind 220º 3kt
Sichtweite >10km
Wetter -
Wolken Clouds and Visibility OK
Druck 1031
Änderung No Significant change
Roh LERI 040730Z 22003KT CAVOK M02/M03 Q1031 NOSIG

VFR

-2°C / -3°C

[Mehr]
Wind 230º 3kt
Sichtweite >10km
Wetter -
Wolken Clouds and Visibility OK
Druck 1031
Änderung No Significant change
Roh LERI 040700Z 23003KT CAVOK M02/M03 Q1031 NOSIG

VFR

-1°C / -2°C

[Mehr]
Wind 250º 3kt
Sichtweite >10km
Wetter -
Wolken Clouds and Visibility OK
Druck 1031
Änderung No Significant change
Roh LERI 040630Z 25003KT CAVOK M01/M02 Q1031 NOSIG

VFR

-1°C / -3°C

[Mehr]
Wind 230º 3kt
Sichtweite >10km
Wetter -
Wolken Clouds and Visibility OK
Druck 1031
Änderung No Significant change
Roh LERI 040600Z 23003KT CAVOK M01/M03 Q1031 NOSIG

VFR

11°C / 1°C

[Mehr]
Wind 110º 4kt
Sichtweite >10km
Wetter -
Wolken Clouds and Visibility OK
Druck 1031
Änderung No Significant change
Roh LERI 031800Z 11004KT CAVOK 11/01 Q1031 NOSIG

TAF für Alcantarilla (LERI)

From till


Maximum Temperature 19ºC on . Minimum Temperature -1ºC on .
From till Wind 240º 10kt. Visibility 10km or more. Nil Significant Cloud.
Becoming from till Wind variable 2kt. Visibility 10km or more. Nil Significant Cloud.
Becoming from till Wind 80º 10kt. Visibility 10km or more. Nil Significant Cloud.

Roh: TAF LERI 041700Z 0418/0518 24010KT CAVOK TX19/0514Z TNM01/0507Z BECMG 0421/0423 VRB02KT BECMG 0510/0512 08010KT

Radar- und Niederschlags-Nowcast für Alcantarilla

Nieselregen
Leicht
Moderat
Stark
Sehr schwer
Hagel

Die Ortsmarkierung zeigt auf Alcantarilla. Diese Animation zeigt das Niederschlagsradar der letzten 1 Stunde. Nieselregen und leichter Schneefall können für das Radar unsichtbar sein. Die Niederschlagsintensität ist farbcodiert von Hellblau bis Orange.
Radardatenquelle: AEMET.

Aktuelle Satelliten- und Regenbilder für Alcantarilla, Spanien

Die Standortmarkierung ist platziert auf Alcantarilla. [Mehr]

Das Echtzeit-Satellitenbild kombiniert sichtbares Licht während des Tages mit Infrarotstrahlung während der Nacht. Nachts ist das Bild nicht dunkel, da Infrarotstrahlung Temperaturunterschiede erkennen kann. Leider sind niedrige Wolken und Nebel nur schwer von den Bodentemperaturen zu unterscheiden und können daher nachts fast unsichtbar sein. Meteosat-Satellitenbilder für Europa werden alle 5 Minuten in Echtzeit aktualisiert. Die Bilder GOES-16 / GOES-17 (Nord- und Südamerika) und Himawari (Asien) werden alle 10 Minuten aktualisiert.

Niederschläge werden von Radar und Satelliten berechnet. Nachts sind die Niederschlagsberechnungen durch die Satelliten weniger genau als tagsüber. Orangene Kreuze markieren Stellen, an denen Blitze aufgenommen wurden (über Europa).

Copyright 2023 EUMETSAT / meteoblue. Blitzdaten zur Verfügung gestellt von nowcast.

Zum Anfang